createdAt,value
2023-03-22T00:01:25.676Z,15.30
2023-03-22T00:03:53.213Z,15.15
2023-03-22T00:06:20.741Z,14.88
2023-03-22T00:08:51.326Z,14.45
2023-03-22T00:11:19.914Z,15.02
2023-03-22T00:13:47.390Z,15.02
2023-03-22T00:16:15.484Z,13.73
2023-03-22T00:18:42.697Z,14.20
2023-03-22T00:21:15.565Z,13.82
2023-03-22T00:23:42.962Z,13.68
2023-03-22T00:26:11.680Z,13.75
2023-03-22T00:28:39.003Z,13.25
2023-03-22T00:31:06.957Z,13.95
2023-03-22T00:33:37.017Z,14.82
2023-03-22T00:36:07.756Z,13.85
2023-03-22T00:38:44.888Z,14.63
2023-03-22T00:41:17.962Z,14.10
2023-03-22T00:43:46.219Z,13.13
2023-03-22T00:46:14.881Z,13.88
2023-03-22T00:48:42.729Z,13.55
2023-03-22T00:51:10.888Z,13.75
2023-03-22T00:53:41.908Z,13.93
2023-03-22T00:56:10.075Z,14.20
2023-03-22T00:58:37.130Z,13.13
2023-03-22T01:01:04.262Z,13.82
2023-03-22T01:03:31.487Z,13.85
2023-03-22T01:05:58.400Z,13.05
2023-03-22T01:08:25.632Z,13.77
2023-03-22T01:10:52.821Z,13.20
2023-03-22T01:13:19.817Z,13.02
2023-03-22T01:15:50.154Z,13.88
2023-03-22T01:18:17.371Z,14.10
2023-03-22T01:20:44.371Z,13.45
2023-03-22T01:23:11.293Z,14.25
2023-03-22T01:25:38.320Z,13.95
2023-03-22T01:28:06.988Z,14.15
2023-03-22T01:30:34.641Z,13.90
2023-03-22T01:33:01.689Z,12.93
2023-03-22T01:35:28.818Z,13.70
2023-03-22T01:37:56.076Z,13.02
2023-03-22T01:40:23.039Z,14.18
2023-03-22T01:42:50.099Z,13.43
2023-03-22T01:45:23.148Z,13.38
2023-03-22T01:47:58.316Z,14.27
2023-03-22T01:50:26.096Z,13.90
2023-03-22T01:52:55.653Z,14.13
2023-03-22T01:55:26.284Z,14.98
2023-03-22T01:57:54.226Z,14.82
2023-03-22T02:00:22.710Z,15.35
2023-03-22T02:02:52.895Z,15.00
2023-03-22T02:05:22.531Z,16.30
2023-03-22T02:07:50.784Z,15.82
2023-03-22T02:10:22.274Z,16.70
2023-03-22T02:13:14.089Z,15.40
2023-03-22T02:16:09.272Z,16.02
2023-03-22T02:18:42.159Z,14.93
2023-03-22T02:21:15.148Z,15.18
2023-03-22T02:24:00.153Z,15.05
2023-03-22T02:26:49.795Z,13.48
2023-03-22T02:29:41.952Z,14.63
2023-03-22T02:32:29.737Z,14.68
2023-03-22T02:35:27.374Z,14.45
2023-03-22T02:38:15.775Z,15.35
2023-03-22T02:41:10.996Z,16.00
2023-03-22T02:44:05.885Z,15.23
2023-03-22T02:46:32.784Z,15.25
2023-03-22T02:49:32.253Z,14.88
2023-03-22T02:52:06.751Z,15.07
2023-03-22T02:54:45.344Z,15.07
2023-03-22T02:57:21.043Z,15.15
2023-03-22T02:59:50.365Z,15.38
2023-03-22T03:02:19.750Z,15.07
2023-03-22T03:04:52.060Z,15.45
2023-03-22T03:07:23.085Z,15.80
2023-03-22T03:13:37.284Z,15.18
2023-03-22T03:16:08.082Z,14.98
2023-03-22T03:18:59.173Z,15.40
2023-03-22T03:21:49.080Z,15.52
2023-03-22T03:24:33.793Z,14.25
2023-03-22T03:27:06.684Z,14.35
2023-03-22T03:29:45.059Z,13.85
2023-03-22T03:32:48.049Z,14.02
2023-03-22T03:35:25.505Z,13.13
2023-03-22T03:37:57.772Z,12.55
2023-03-22T03:40:32.620Z,13.70
2023-03-22T03:43:03.821Z,13.90
2023-03-22T03:45:31.099Z,13.00
2023-03-22T03:48:01.686Z,13.45
2023-03-22T03:50:29.827Z,13.52
2023-03-22T03:52:56.974Z,13.50
2023-03-22T03:55:24.659Z,13.88
2023-03-22T03:57:51.725Z,12.77
2023-03-22T04:00:19.817Z,13.13
2023-03-22T04:02:46.791Z,13.75
2023-03-22T04:05:14.348Z,13.90
2023-03-22T04:07:41.763Z,13.23
2023-03-22T04:10:09.275Z,13.27
2023-03-22T04:12:36.404Z,14.18
2023-03-22T04:15:03.522Z,13.73
2023-03-22T04:17:32.270Z,14.02
2023-03-22T04:19:59.244Z,13.57
2023-03-22T04:22:26.803Z,14.48
2023-03-22T04:24:53.848Z,15.00
2023-03-22T04:27:22.738Z,14.02
2023-03-22T04:29:51.229Z,14.82
2023-03-22T04:32:19.197Z,14.35
2023-03-22T04:34:46.649Z,14.63
2023-03-22T04:37:14.906Z,14.65
2023-03-22T04:39:42.609Z,15.63
2023-03-22T04:42:09.976Z,14.48
2023-03-22T04:44:36.817Z,15.80
2023-03-22T04:47:04.046Z,16.73
2023-03-22T04:49:31.541Z,16.10
2023-03-22T04:51:58.516Z,16.50
2023-03-22T04:54:25.807Z,16.58
2023-03-22T04:56:52.973Z,16.80
2023-03-22T04:59:20.651Z,16.98
2023-03-22T05:01:48.560Z,18.25
2023-03-22T05:04:19.697Z,18.45
2023-03-22T05:06:46.760Z,20.25
2023-03-22T05:09:14.569Z,21.63
2023-03-22T05:11:42.073Z,20.45
2023-03-22T05:14:09.769Z,21.27
2023-03-22T05:16:37.157Z,21.45
2023-03-22T05:19:04.187Z,22.05
2023-03-22T05:21:37.055Z,22.70
2023-03-22T05:24:04.378Z,25.02
2023-03-22T05:26:31.336Z,25.60
2023-03-22T05:28:58.741Z,24.92
2023-03-22T05:31:28.577Z,24.90
2023-03-22T05:33:55.787Z,24.70
2023-03-22T05:36:23.876Z,24.55
2023-03-22T05:38:50.831Z,22.10
2023-03-22T05:41:17.649Z,21.42
2023-03-22T05:43:44.616Z,18.60
2023-03-22T05:46:12.342Z,17.13
2023-03-22T05:52:19.913Z,14.40
2023-03-22T05:54:46.841Z,17.10
2023-03-22T05:57:13.863Z,15.60
2023-03-22T05:59:40.988Z,16.35
2023-03-22T06:02:07.809Z,17.50
2023-03-22T06:04:34.776Z,17.55
2023-03-22T06:07:01.624Z,17.50
2023-03-22T06:09:28.509Z,17.35
2023-03-22T06:11:55.360Z,18.67
2023-03-22T06:14:24.013Z,20.55
2023-03-22T06:16:51.240Z,21.33
2023-03-22T06:23:18.298Z,17.95
2023-03-22T06:25:45.388Z,19.23
2023-03-22T06:28:12.214Z,20.38
2023-03-22T06:30:39.652Z,19.27
2023-03-22T06:33:06.774Z,19.17
2023-03-22T06:35:34.630Z,20.10
2023-03-22T06:41:49.600Z,19.50
2023-03-22T06:44:16.997Z,19.95
2023-03-22T06:50:31.330Z,18.88
2023-03-22T06:56:38.752Z,19.27
2023-03-22T06:59:05.682Z,20.10
2023-03-22T07:01:32.606Z,19.55
2023-03-22T07:03:59.735Z,19.85
2023-03-22T07:06:26.731Z,19.02
2023-03-22T07:12:34.854Z,21.02
2023-03-22T07:15:02.573Z,20.20
2023-03-22T07:17:29.662Z,18.73
2023-03-22T07:23:58.283Z,19.23
2023-03-22T07:30:08.976Z,20.67
2023-03-22T07:32:36.447Z,22.25
2023-03-22T07:38:44.300Z,20.30
2023-03-22T07:41:11.200Z,20.67
2023-03-22T07:43:52.393Z,21.75
2023-03-22T07:46:21.125Z,21.77
2023-03-22T07:48:48.094Z,22.58
2023-03-22T07:51:15.420Z,22.40
2023-03-22T07:53:42.380Z,21.67
2023-03-22T07:56:09.818Z,22.88
2023-03-22T07:58:36.996Z,21.42
2023-03-22T08:01:05.735Z,23.75
2023-03-22T08:03:32.918Z,25.65
2023-03-22T08:06:02.860Z,24.80
2023-03-22T08:08:29.913Z,24.20
2023-03-22T08:10:56.810Z,23.98
2023-03-22T08:13:23.950Z,23.67
2023-03-22T08:15:51.219Z,24.85
2023-03-22T08:18:18.178Z,24.08
2023-03-22T08:20:47.817Z,23.30
2023-03-22T08:23:16.434Z,23.42
2023-03-22T08:25:43.572Z,23.25
2023-03-22T08:28:10.827Z,22.60
2023-03-22T08:30:38.936Z,23.27
2023-03-22T08:33:06.657Z,22.58
2023-03-22T08:35:34.253Z,25.95
2023-03-22T08:38:01.321Z,25.67
2023-03-22T08:40:28.353Z,26.60
2023-03-22T08:42:55.524Z,27.67
2023-03-22T08:45:22.440Z,28.63
2023-03-22T08:47:49.392Z,28.15
2023-03-22T08:50:16.391Z,29.80
2023-03-22T08:52:43.224Z,28.13
2023-03-22T08:58:57.144Z,27.63
2023-03-22T09:01:25.745Z,28.23
2023-03-22T09:03:52.768Z,28.20
2023-03-22T09:06:19.663Z,28.88
2023-03-22T09:08:48.247Z,28.23
2023-03-22T09:11:17.637Z,27.42
2023-03-22T09:13:44.860Z,26.83
2023-03-22T09:16:12.153Z,27.55
2023-03-22T09:18:39.973Z,26.38
2023-03-22T09:21:08.637Z,26.88
2023-03-22T09:23:37.887Z,26.80
2023-03-22T09:26:07.444Z,26.75
2023-03-22T09:28:36.311Z,25.67
2023-03-22T09:31:06.791Z,26.90
2023-03-22T09:33:35.632Z,26.50
2023-03-22T09:36:03.149Z,27.75
2023-03-22T09:38:32.587Z,25.02
2023-03-22T09:41:05.675Z,26.23
2023-03-22T09:43:43.782Z,27.10
2023-03-22T09:46:17.104Z,26.92
2023-03-22T09:48:48.408Z,26.67
2023-03-22T09:51:40.526Z,27.10
2023-03-22T09:54:21.788Z,27.35
2023-03-22T09:57:27.587Z,26.65
2023-03-22T10:00:35.684Z,26.25
2023-03-22T10:03:32.766Z,26.67
2023-03-22T10:06:04.325Z,27.60
2023-03-22T10:08:44.598Z,27.45
2023-03-22T10:11:19.440Z,28.17
2023-03-22T10:13:59.773Z,27.20
2023-03-22T10:16:33.193Z,27.73
2023-03-22T10:19:17.681Z,27.90
2023-03-22T10:21:46.744Z,27.27
2023-03-22T10:24:20.384Z,27.10
2023-03-22T10:26:48.973Z,28.48
2023-03-22T10:29:23.569Z,27.35
2023-03-22T10:31:50.783Z,28.65
2023-03-22T10:34:33.848Z,28.85
2023-03-22T10:37:04.249Z,27.20
2023-03-22T10:39:46.523Z,28.08
2023-03-22T10:42:17.953Z,29.42
2023-03-22T10:44:50.650Z,31.65
2023-03-22T10:47:21.521Z,32.90
2023-03-22T10:49:54.749Z,32.05
2023-03-22T10:52:31.276Z,32.08
2023-03-22T10:55:02.994Z,33.30
2023-03-22T10:57:31.205Z,35.63
2023-03-22T10:59:58.415Z,34.65
2023-03-22T11:02:31.217Z,34.72
2023-03-22T11:05:01.200Z,34.60
2023-03-22T11:07:45.449Z,30.55
2023-03-22T11:13:09.788Z,33.13
2023-03-22T11:15:40.868Z,31.83
2023-03-22T11:18:18.173Z,29.63
2023-03-22T11:21:00.650Z,28.75
2023-03-22T11:23:32.284Z,26.40
2023-03-22T11:26:06.300Z,28.10
2023-03-22T11:28:42.100Z,25.33
2023-03-22T11:31:09.487Z,25.95
2023-03-22T11:33:37.712Z,25.23
2023-03-22T11:36:16.976Z,25.23
2023-03-22T11:38:46.356Z,23.13
2023-03-22T11:41:45.319Z,23.70
2023-03-22T11:47:53.703Z,23.30
2023-03-22T11:54:21.925Z,21.48
2023-03-22T11:56:50.398Z,21.05
2023-03-22T11:59:17.527Z,19.55
2023-03-22T12:01:51.708Z,19.52
2023-03-22T12:04:24.876Z,19.52
2023-03-22T12:06:56.501Z,19.02
2023-03-22T12:09:41.551Z,17.88
2023-03-22T12:16:02.271Z,16.33
2023-03-22T12:18:29.613Z,14.02
2023-03-22T12:21:01.267Z,13.15
2023-03-22T12:23:36.704Z,12.95
2023-03-22T12:29:57.135Z,12.82
2023-03-22T12:32:39.191Z,11.55
2023-03-22T12:35:17.591Z,12.25
2023-03-22T12:37:50.807Z,11.65
2023-03-22T12:40:23.514Z,11.70
2023-03-22T12:43:05.628Z,13.18
2023-03-22T12:45:39.751Z,13.02
2023-03-22T12:48:07.042Z,12.20
2023-03-22T12:50:46.299Z,10.73
2023-03-22T12:53:18.529Z,12.27
2023-03-22T12:55:47.592Z,11.40
2023-03-22T12:58:29.809Z,11.85
2023-03-22T13:01:20.086Z,11.05
2023-03-22T13:03:56.275Z,11.98
2023-03-22T13:06:58.060Z,11.50
2023-03-22T13:09:28.644Z,10.15
2023-03-22T13:15:42.115Z,11.35
2023-03-22T13:18:38.032Z,11.00
2023-03-22T13:25:17.489Z,10.45
2023-03-22T13:27:54.153Z,10.57
2023-03-22T13:30:26.446Z,9.70
2023-03-22T13:33:04.225Z,10.13
2023-03-22T13:39:15.930Z,9.32
2023-03-22T13:41:51.865Z,9.57
2023-03-22T13:44:31.727Z,8.60
2023-03-22T13:47:01.552Z,8.95
2023-03-22T13:53:30.402Z,7.60
2023-03-22T14:00:14.952Z,9.93
2023-03-22T14:02:44.040Z,9.15
2023-03-22T14:05:19.137Z,9.20
2023-03-22T14:07:58.224Z,8.23
2023-03-22T14:10:40.247Z,7.40
2023-03-22T14:13:26.365Z,9.30
2023-03-22T14:16:03.192Z,10.50
2023-03-22T14:18:37.379Z,11.02
2023-03-22T14:21:08.362Z,11.20
